Time;durP1;ratioP1;P1;durP2;ratioP2;P2;SDS_P1;SDS_P2;PMS_P1;PMS_P2;Temp;Humidity;BMP_temperature;BMP_pressure;BME280_temperature;BME280_humidity;BME280_pressure;Samples;Min_cycle;Max_cycle;Signal;HPM_P1;HPM_P2
2022/05/21 00:02:55;;;;;;;3.50;2.58;;;13.00;99.90;;;;;;12405794;28;20049;-38
2022/05/21 00:08:57;;;;;;;6.07;2.92;;;13.00;99.90;;;;;;12403236;28;20482;-38
2022/05/21 00:14:59;;;;;;;4.40;3.17;;;12.80;99.90;;;;;;12401739;28;20200;-40
2022/05/21 00:21:01;;;;;;;5.05;3.50;;;13.00;99.90;;;;;;12403546;28;20098;-39
2022/05/21 00:27:03;;;;;;;8.20;4.32;;;12.90;99.90;;;;;;12406802;28;20277;-40
2022/05/21 00:33:06;;;;;;;6.80;5.78;;;12.90;99.90;;;;;;12403460;28;20154;-38
2022/05/21 00:39:08;;;;;;;12.10;6.50;;;12.90;99.90;;;;;;12406326;28;20178;-39
2022/05/21 00:45:12;;;;;;;8.23;6.18;;;12.80;99.90;;;;;;12398813;28;20513;-37
2022/05/21 00:51:21;;;;;;;9.13;5.57;;;12.80;99.90;;;;;;12401901;28;20147;-39
2022/05/21 00:57:32;;;;;;;7.45;5.15;;;12.80;99.90;;;;;;12406810;28;20169;-39
2022/05/21 01:03:34;;;;;;;6.60;4.25;;;12.70;99.90;;;;;;12398757;28;20514;-40
2022/05/21 01:09:39;;;;;;;9.02;4.75;;;12.60;99.90;;;;;;12401922;28;20057;-38
2022/05/21 01:15:45;;;;;;;6.65;4.57;;;12.70;99.90;;;;;;12399516;28;20698;-40
2022/05/21 01:21:47;;;;;;;7.10;4.53;;;12.60;99.90;;;;;;12398073;28;20053;-41
2022/05/21 01:27:51;;;;;;;7.95;4.00;;;12.60;99.90;;;;;;12404304;28;20501;-38
2022/05/21 01:33:54;;;;;;;8.13;4.00;;;12.50;99.90;;;;;;12401866;28;20132;-39
2022/05/21 01:39:57;;;;;;;8.32;4.60;;;12.60;99.90;;;;;;12402708;28;20180;-40
2022/05/21 01:45:59;;;;;;;9.35;4.47;;;12.60;99.90;;;;;;12405776;28;20547;-40
2022/05/21 01:52:03;;;;;;;8.55;4.35;;;12.30;99.90;;;;;;12396288;28;20049;-38
2022/05/21 01:58:05;;;;;;;7.20;3.95;;;12.20;99.90;;;;;;12399754;28;20050;-40
2022/05/21 02:04:08;;;;;;;8.02;4.78;;;12.20;99.90;;;;;;12395603;28;20065;-38
2022/05/21 02:10:10;;;;;;;8.65;4.80;;;12.10;99.90;;;;;;12398450;28;20099;-40
2022/05/21 02:16:12;;;;;;;10.38;5.88;;;12.10;99.90;;;;;;12391056;28;20116;-40
2022/05/21 02:22:15;;;;;;;9.77;6.68;;;12.20;99.90;;;;;;12389426;28;20111;-38
2022/05/21 02:28:17;;;;;;;12.48;8.52;;;12.10;99.90;;;;;;12392105;28;20050;-38
2022/05/21 02:34:19;;;;;;;12.65;7.65;;;12.10;99.90;;;;;;12386362;28;20054;-39
2022/05/21 02:40:21;;;;;;;11.73;8.95;;;11.90;99.90;;;;;;12388441;28;20159;-39
2022/05/21 02:46:23;;;;;;;16.17;9.85;;;11.90;99.90;;;;;;12385237;28;20749;-39
2022/05/21 02:52:25;;;;;;;13.02;9.40;;;11.80;99.90;;;;;;12385870;28;20051;-40
2022/05/21 02:58:27;;;;;;;17.38;10.65;;;12.00;99.90;;;;;;12385557;28;20112;-41
2022/05/21 03:04:29;;;;;;;14.85;9.95;;;11.90;99.90;;;;;;12391577;28;20144;-41
2022/05/21 03:10:31;;;;;;;14.93;10.90;;;11.80;99.90;;;;;;12396347;28;20038;-39
2022/05/21 03:16:33;;;;;;;15.18;11.23;;;11.90;99.90;;;;;;12407171;28;20554;-40
2022/05/21 03:22:35;;;;;;;17.88;12.38;;;11.90;99.90;;;;;;12406453;28;20414;-39
2022/05/21 03:28:38;;;;;;;17.38;13.18;;;11.80;99.90;;;;;;12404622;28;20212;-39
2022/05/21 03:34:40;;;;;;;19.67;14.55;;;11.80;99.90;;;;;;12401489;28;20053;-39
2022/05/21 03:40:42;;;;;;;20.98;14.63;;;11.90;99.90;;;;;;12397198;28;20410;-40
2022/05/21 03:46:44;;;;;;;21.10;14.40;;;11.80;99.90;;;;;;12404219;28;20461;-39
2022/05/21 03:52:46;;;;;;;20.27;15.55;;;11.90;99.90;;;;;;12399160;28;20054;-37
2022/05/21 03:58:48;;;;;;;22.55;14.35;;;12.00;99.90;;;;;;12399768;28;20062;-37
2022/05/21 04:04:50;;;;;;;22.33;16.10;;;12.00;99.90;;;;;;12401546;28;20068;-39
2022/05/21 04:10:52;;;;;;;20.48;15.23;;;12.10;99.90;;;;;;12400742;28;20121;-40
2022/05/21 04:16:59;;;;;;;26.17;17.17;;;12.00;99.90;;;;;;12400990;28;20134;-40
2022/05/21 04:23:01;;;;;;;21.45;17.95;;;12.00;99.90;;;;;;12398786;28;20052;-40
2022/05/21 04:29:03;;;;;;;30.52;20.25;;;12.00;99.90;;;;;;12406204;28;20506;-40
2022/05/21 04:35:07;;;;;;;29.35;21.05;;;12.10;99.90;;;;;;12404538;28;20054;-38
2022/05/21 04:41:10;;;;;;;30.13;21.13;;;12.10;99.90;;;;;;12400969;28;20133;-40
2022/05/21 04:47:12;;;;;;;24.42;20.23;;;12.20;99.90;;;;;;12401271;28;20566;-39
2022/05/21 04:53:13;;;;;;;28.35;21.40;;;12.10;99.90;;;;;;12402828;28;20502;-38
2022/05/21 04:59:15;;;;;;;25.73;20.75;;;12.30;99.90;;;;;;12402935;28;20062;-40
2022/05/21 05:05:17;;;;;;;28.63;20.13;;;12.20;99.90;;;;;;12400582;28;20136;-37
2022/05/21 05:11:19;;;;;;;24.58;17.38;;;12.20;99.90;;;;;;12400632;28;20161;-38
2022/05/21 05:17:22;;;;;;;25.45;17.02;;;12.10;99.90;;;;;;12403750;28;20058;-39
2022/05/21 05:23:24;;;;;;;23.73;17.15;;;12.20;99.90;;;;;;12401042;28;20046;-40
2022/05/21 05:29:26;;;;;;;25.67;16.42;;;12.10;99.90;;;;;;12395938;28;20054;-40
2022/05/21 05:35:29;;;;;;;23.05;16.02;;;12.00;99.90;;;;;;12403542;28;20058;-39
2022/05/21 05:41:31;;;;;;;22.30;15.10;;;12.00;99.90;;;;;;12402956;28;20054;-39
2022/05/21 05:47:33;;;;;;;22.65;15.27;;;12.10;99.90;;;;;;12400480;28;20058;-41
2022/05/21 05:53:35;;;;;;;17.73;14.68;;;12.40;99.90;;;;;;12402694;28;20049;-39
2022/05/21 05:59:50;;;;;;;23.38;14.25;;;12.30;99.90;;;;;;12394415;28;20084;-39
2022/05/21 06:05:55;;;;;;;18.55;13.80;;;12.30;99.90;;;;;;12398646;28;20074;-39
2022/05/21 06:11:57;;;;;;;23.10;14.60;;;12.30;99.90;;;;;;12401928;28;20478;-38
2022/05/21 06:17:59;;;;;;;22.50;13.55;;;12.30;99.90;;;;;;12394527;28;20157;-41
2022/05/21 06:24:01;;;;;;;19.42;13.15;;;12.30;99.90;;;;;;12381269;28;20074;-38
2022/05/21 06:30:04;;;;;;;23.67;13.48;;;12.40;99.90;;;;;;12387067;28;20107;-40
2022/05/21 06:36:12;;;;;;;19.75;13.48;;;12.50;99.90;;;;;;12396060;28;20520;-37
2022/05/21 06:42:14;;;;;;;24.58;13.35;;;12.70;99.90;;;;;;12398150;28;20073;-40
2022/05/21 06:48:19;;;;;;;22.60;13.27;;;12.90;99.90;;;;;;12398825;28;20100;-37
2022/05/21 06:54:23;;;;;;;21.75;12.30;;;13.20;99.90;;;;;;12397958;28;20550;-40
2022/05/21 07:00:25;;;;;;;23.07;11.70;;;13.30;99.90;;;;;;12397076;28;20187;-41
2022/05/21 07:12:48;;;;;;;17.58;9.80;;;13.20;99.90;;;;;;12402935;28;20077;-42
2022/05/21 07:18:50;;;;;;;13.55;8.70;;;13.10;99.90;;;;;;12409869;28;20137;-40
2022/05/21 07:24:52;;;;;;;17.27;8.45;;;13.20;99.90;;;;;;12408129;28;20034;-38
2022/05/21 07:30:54;;;;;;;17.75;8.43;;;13.30;99.90;;;;;;12403428;28;20046;-39
2022/05/21 07:36:56;;;;;;;13.27;7.90;;;13.50;99.90;;;;;;12404085;28;20054;-38
2022/05/21 07:42:58;;;;;;;12.98;7.78;;;13.40;99.90;;;;;;12401835;28;20058;-39
2022/05/21 07:49:01;;;;;;;16.13;7.20;;;13.60;99.90;;;;;;12403725;28;20093;-40
2022/05/21 07:55:03;;;;;;;14.82;6.70;;;13.80;99.90;;;;;;12405077;28;20062;-40
2022/05/21 08:01:05;;;;;;;15.30;7.00;;;13.90;99.90;;;;;;12401364;28;20140;-40
2022/05/21 08:07:14;;;;;;;15.38;7.10;;;13.90;99.90;;;;;;12403252;28;20462;-39
2022/05/21 08:13:17;;;;;;;14.50;6.83;;;13.90;99.90;;;;;;12401873;28;20084;-39
2022/05/21 08:19:19;;;;;;;11.55;6.00;;;14.00;99.90;;;;;;12398270;28;20086;-39
2022/05/21 08:31:42;;;;;;;15.73;6.43;;;14.00;99.90;;;;;;12387484;28;20091;-39
2022/05/21 08:37:44;;;;;;;12.73;6.30;;;14.10;99.90;;;;;;12392836;28;20057;-39
2022/05/21 08:43:45;;;;;;;12.18;6.50;;;14.20;99.90;;;;;;12390007;28;20182;-41
2022/05/21 08:50:09;;;;;;;11.80;5.43;;;14.50;99.90;;;;;;12388168;28;20839;-41
2022/05/21 08:56:12;;;;;;;15.70;5.77;;;14.80;99.90;;;;;;12387011;28;20057;-43
2022/05/21 09:02:17;;;;;;;13.63;5.03;;;14.90;99.90;;;;;;12381936;28;20053;-39
2022/05/21 09:08:31;;;;;;;11.50;5.10;;;15.10;99.90;;;;;;12399748;28;20077;-41
2022/05/21 09:14:46;;;;;;;11.60;4.82;;;15.00;99.90;;;;;;12393504;28;20046;-39
2022/05/21 09:20:58;;;;;;;;;;;15.20;99.90;;;;;;12397928;28;20495;-42
2022/05/21 09:27:01;;;;;;;9.15;4.43;;;15.20;99.90;;;;;;12396566;28;19967;-39
2022/05/21 09:33:26;;;;;;;15.55;5.18;;;15.10;99.90;;;;;;12397515;28;20228;-42
2022/05/21 09:39:35;;;;;;;9.02;4.82;;;15.30;99.90;;;;;;12396644;28;20635;-39
2022/05/21 09:45:39;;;;;;;11.88;5.32;;;15.20;99.90;;;;;;12394444;28;20150;-37
2022/05/21 09:51:51;;;;;;;8.35;4.40;;;15.40;99.90;;;;;;12398632;28;20142;-38
2022/05/21 09:57:54;;;;;;;13.18;5.10;;;15.40;99.90;;;;;;12398813;28;20432;-37
2022/05/21 10:03:58;;;;;;;17.63;5.97;;;15.20;99.90;;;;;;12397768;28;20042;-37
2022/05/21 10:16:37;;;;;;;13.25;5.07;;;15.70;99.90;;;;;;12397179;28;20297;-40
2022/05/21 10:22:56;;;;;;;12.30;5.35;;;15.40;99.90;;;;;;12403918;28;20653;-40
2022/05/21 10:29:16;;;;;;;9.65;5.15;;;15.40;99.90;;;;;;12407436;28;20533;-40
2022/05/21 10:35:39;;;;;;;8.95;5.00;;;15.50;99.90;;;;;;12403645;28;20058;-41
2022/05/21 10:42:34;;;;;;;13.43;5.30;;;15.70;99.90;;;;;;12406869;28;20061;-39
2022/05/21 10:48:42;;;;;;;9.07;5.60;;;15.70;99.90;;;;;;12412544;28;20157;-39
2022/05/21 10:55:16;;;;;;;15.25;6.65;;;15.60;99.90;;;;;;12414381;28;20104;-39
2022/05/21 11:01:27;;;;;;;10.02;5.78;;;15.40;99.90;;;;;;12410173;28;20054;-38
2022/05/21 11:07:54;;;;;;;13.60;5.63;;;15.10;99.90;;;;;;12403817;28;20050;-39
2022/05/21 11:14:09;;;;;;;12.70;5.70;;;15.00;99.90;;;;;;12403708;28;20153;-40
2022/05/21 11:20:27;;;;;;;14.25;6.30;;;14.90;99.90;;;;;;12397114;28;20137;-38
2022/05/21 11:26:43;;;;;;;10.70;5.55;;;15.20;99.90;;;;;;12405272;28;20618;-38
2022/05/21 11:39:16;;;;;;;11.57;5.50;;;15.70;99.90;;;;;;12397514;28;20088;-40
2022/05/21 11:45:24;;;;;;;7.93;4.20;;;15.60;99.90;;;;;;12403517;28;20120;-41
2022/05/21 11:51:34;;;;;;;9.50;4.30;;;15.30;99.90;;;;;;12403352;28;20051;-38
2022/05/21 11:57:40;;;;;;;10.32;5.05;;;15.10;99.90;;;;;;12401841;28;20049;-51
2022/05/21 12:03:53;;;;;;;11.30;4.60;;;15.50;99.90;;;;;;12394981;28;20042;-38
2022/05/21 12:10:02;;;;;;;10.50;4.17;;;15.50;99.90;;;;;;12401783;28;20069;-40
2022/05/21 12:16:19;;;;;;;7.63;3.30;;;15.40;99.90;;;;;;12401405;28;20054;-40
2022/05/21 12:22:47;;;;;;;9.75;2.95;;;15.50;99.90;;;;;;12406307;28;20061;-39
2022/05/21 12:29:11;;;;;;;6.32;1.48;;;15.50;99.90;;;;;;12400590;28;20053;-38
2022/05/21 12:35:32;;;;;;;8.95;2.35;;;15.50;99.90;;;;;;12399222;28;20137;-39
2022/05/21 12:41:38;;;;;;;8.93;3.58;;;15.70;99.90;;;;;;12396974;28;20343;-39
2022/05/21 12:47:44;;;;;;;12.65;3.08;;;15.50;99.90;;;;;;12402711;28;20596;-39
2022/05/21 12:53:49;;;;;;;7.80;2.53;;;15.30;99.90;;;;;;12399202;28;20054;-41
2022/05/21 13:00:04;;;;;;;8.65;2.80;;;15.40;99.90;;;;;;12402782;28;20115;-39
2022/05/21 13:06:09;;;;;;;12.82;4.75;;;15.60;99.90;;;;;;12397075;28;20169;-40
2022/05/21 13:12:15;;;;;;;13.30;4.78;;;15.80;99.90;;;;;;12398295;28;20060;-40
2022/05/21 13:18:44;;;;;;;12.55;4.70;;;15.80;99.90;;;;;;12402201;28;20108;-39
2022/05/21 13:24:53;;;;;;;12.38;5.10;;;15.80;99.90;;;;;;12401278;28;20050;-39
2022/05/21 13:30:55;;;;;;;10.48;4.40;;;15.70;99.90;;;;;;12395415;28;20130;-41
2022/05/21 13:37:01;;;;;;;9.00;4.05;;;15.60;99.90;;;;;;12395147;28;20065;-39
2022/05/21 13:43:09;;;;;;;15.38;4.00;;;15.40;99.90;;;;;;12399153;28;20933;-39
2022/05/21 13:49:33;;;;;;;13.48;3.20;;;15.40;99.90;;;;;;12397324;28;20568;-39
2022/05/21 13:55:36;;;;;;;13.85;3.58;;;15.40;99.90;;;;;;12398671;28;20057;-38
2022/05/21 14:01:42;;;;;;;11.05;2.90;;;15.40;99.90;;;;;;12400339;28;20046;-39
2022/05/21 14:07:55;;;;;;;10.27;2.75;;;15.40;99.90;;;;;;12401902;28;20055;-39
2022/05/21 14:14:08;;;;;;;14.07;2.70;;;15.60;99.90;;;;;;12396255;28;20470;-39
2022/05/21 14:20:22;;;;;;;9.50;2.80;;;15.70;99.90;;;;;;12399352;28;20149;-38
2022/05/21 14:26:31;;;;;;;9.07;2.30;;;16.10;99.90;;;;;;12401954;28;20054;-39
2022/05/21 14:32:38;;;;;;;9.90;1.60;;;16.40;99.90;;;;;;12401002;28;20054;-41
2022/05/21 14:38:41;;;;;;;8.35;1.40;;;16.20;99.90;;;;;;12402579;28;20111;-39
2022/05/21 14:44:45;;;;;;;7.38;1.60;;;16.00;99.90;;;;;;12402128;28;20731;-40
2022/05/21 14:57:14;;;;;;;7.43;1.70;;;16.30;99.90;;;;;;12400737;28;20096;-39
2022/05/21 15:03:16;;;;;;;5.57;1.33;;;16.20;99.90;;;;;;12399268;28;20057;-41
2022/05/21 15:09:18;;;;;;;5.53;1.20;;;16.00;99.90;;;;;;12413842;28;20045;-41
2022/05/21 15:15:22;;;;;;;8.98;1.70;;;16.20;99.90;;;;;;12407196;28;20089;-41
2022/05/21 15:21:27;;;;;;;8.77;1.42;;;16.50;99.90;;;;;;12411125;28;20049;-39
2022/05/21 15:27:30;;;;;;;8.38;1.65;;;16.70;99.90;;;;;;12406477;28;20116;-40
2022/05/21 15:33:33;;;;;;;6.40;1.33;;;16.60;99.90;;;;;;12406174;28;20699;-40
2022/05/21 15:39:35;;;;;;;6.57;1.30;;;16.60;99.90;;;;;;12411872;28;20166;-41
2022/05/21 15:45:38;;;;;;;4.50;1.17;;;16.80;99.90;;;;;;12407941;28;20053;-39
2022/05/21 15:51:41;;;;;;;6.93;1.10;;;16.70;99.90;;;;;;12413161;28;20050;-39
2022/05/21 15:57:45;;;;;;;5.43;1.23;;;16.70;99.90;;;;;;12409823;28;20054;-39
2022/05/21 16:03:49;;;;;;;;;;;16.70;99.90;;;;;;12407706;28;20084;-39
2022/05/21 16:09:52;;;;;;;6.65;1.48;;;16.70;99.90;;;;;;12409994;28;20342;-40
2022/05/21 16:15:55;;;;;;;7.20;1.73;;;16.60;99.90;;;;;;12404448;28;20049;-39
2022/05/21 16:22:02;;;;;;;7.03;1.52;;;16.50;99.90;;;;;;12410283;28;20046;-40
2022/05/21 16:28:04;;;;;;;8.95;1.98;;;16.40;99.90;;;;;;12409265;28;20054;-42
2022/05/21 16:34:07;;;;;;;6.97;1.60;;;16.30;99.90;;;;;;12403536;28;20387;-41
2022/05/21 16:40:10;;;;;;;7.60;1.55;;;16.20;99.90;;;;;;12405588;28;20053;-40
2022/05/21 16:46:14;;;;;;;6.50;1.30;;;16.30;99.90;;;;;;12402105;28;20050;-39
2022/05/21 16:52:17;;;;;;;6.93;1.35;;;16.30;99.90;;;;;;12407362;28;20137;-41
2022/05/21 16:58:20;;;;;;;8.00;1.60;;;16.50;99.90;;;;;;12406373;28;20057;-39
2022/05/21 17:04:24;;;;;;;6.53;1.70;;;16.30;99.90;;;;;;12401370;28;20129;-39
2022/05/21 17:10:27;;;;;;;10.55;1.80;;;16.40;99.90;;;;;;12407056;28;20050;-39
2022/05/21 17:16:30;;;;;;;5.82;1.20;;;16.40;99.90;;;;;;12399914;28;20058;-41
2022/05/21 17:22:33;;;;;;;5.80;1.20;;;16.40;99.90;;;;;;12403458;28;20494;-41
2022/05/21 17:34:56;;;;;;;8.23;1.80;;;16.30;99.90;;;;;;12400861;28;20489;-39
2022/05/21 17:40:59;;;;;;;8.57;1.60;;;16.40;99.90;;;;;;12406505;28;20050;-41
2022/05/21 17:47:03;;;;;;;7.63;1.15;;;16.30;99.90;;;;;;12410675;28;20406;-39
2022/05/21 17:53:06;;;;;;;9.57;1.52;;;16.20;99.90;;;;;;12400613;28;20052;-39
2022/05/21 17:59:08;;;;;;;5.43;1.30;;;16.20;99.90;;;;;;12405960;28;20245;-39
2022/05/21 18:05:17;;;;;;;4.95;1.83;;;16.10;99.90;;;;;;12403862;28;20191;-39
2022/05/21 18:11:19;;;;;;;6.10;1.58;;;16.00;99.90;;;;;;12401990;28;20057;-41
2022/05/21 18:23:47;;;;;;;8.35;1.70;;;15.90;99.90;;;;;;12396659;28;20491;-39
2022/05/21 18:29:49;;;;;;;6.88;1.50;;;15.90;99.90;;;;;;12405458;28;20152;-39
2022/05/21 18:35:51;;;;;;;10.30;1.83;;;15.70;99.90;;;;;;12397584;28;20494;-41
2022/05/21 18:41:53;;;;;;;6.78;1.15;;;15.80;99.90;;;;;;12403596;28;20096;-39
2022/05/21 18:47:56;;;;;;;4.65;1.52;;;15.70;99.90;;;;;;12410603;28;20046;-39
2022/05/21 18:53:58;;;;;;;9.10;1.70;;;15.70;99.90;;;;;;12406116;28;20057;-41
2022/05/21 19:00:00;;;;;;;5.15;1.20;;;15.50;99.90;;;;;;12414735;28;20050;-40
2022/05/21 19:06:04;;;;;;;5.22;1.33;;;15.60;99.90;;;;;;12408571;28;20564;-41
2022/05/21 19:12:07;;;;;;;8.70;1.80;;;15.60;99.90;;;;;;12412663;28;20085;-39
2022/05/21 19:24:33;;;;;;;9.43;1.60;;;15.40;99.90;;;;;;12410632;28;20049;-41
2022/05/21 19:30:35;;;;;;;6.78;1.75;;;15.30;99.90;;;;;;12409894;28;20112;-41
2022/05/21 19:36:38;;;;;;;6.63;1.58;;;15.30;99.90;;;;;;12409105;28;20101;-40
2022/05/21 19:42:40;;;;;;;5.35;1.40;;;15.20;99.90;;;;;;12410536;28;20088;-42
2022/05/21 19:48:41;;;;;;;5.38;1.20;;;15.20;99.90;;;;;;12407343;28;20119;-39
2022/05/21 19:54:46;;;;;;;6.78;2.03;;;15.10;99.90;;;;;;12405644;28;20426;-41
2022/05/21 20:00:48;;;;;;;8.35;2.03;;;15.00;99.90;;;;;;12408501;28;20140;-41
2022/05/21 20:06:52;;;;;;;9.32;1.80;;;15.10;99.90;;;;;;12404559;28;20050;-39
2022/05/21 20:12:54;;;;;;;5.13;1.57;;;14.80;99.90;;;;;;12404104;28;20042;-39
2022/05/21 20:18:56;;;;;;;4.47;1.58;;;14.80;99.90;;;;;;12411908;28;20648;-39
2022/05/21 20:24:58;;;;;;;5.60;1.67;;;14.70;99.90;;;;;;12401872;28;20050;-39
2022/05/21 20:30:59;;;;;;;7.75;1.88;;;14.80;99.90;;;;;;12402075;28;20133;-39
2022/05/21 20:37:02;;;;;;;4.50;1.77;;;14.80;99.90;;;;;;12408572;28;20061;-40
2022/05/21 20:43:05;;;;;;;5.47;1.50;;;14.60;99.90;;;;;;12401713;28;20045;-40
2022/05/21 20:55:31;;;;;;;8.15;1.75;;;14.50;99.90;;;;;;12400344;28;20123;-39
2022/05/21 21:01:33;;;;;;;7.75;1.73;;;14.60;99.90;;;;;;12399208;28;20046;-41
2022/05/21 21:07:35;;;;;;;6.10;1.60;;;14.60;99.90;;;;;;12398996;28;20057;-41
2022/05/21 21:13:38;;;;;;;4.75;1.40;;;14.70;99.90;;;;;;12408842;28;20053;-41
2022/05/21 21:19:40;;;;;;;9.45;1.77;;;14.60;99.90;;;;;;12404977;28;20054;-39
2022/05/21 21:25:42;;;;;;;3.88;1.38;;;14.60;99.90;;;;;;12398948;28;20074;-40
2022/05/21 21:31:44;;;;;;;5.65;1.52;;;14.50;99.90;;;;;;12405254;28;20897;-40
2022/05/21 21:37:45;;;;;;;4.60;1.40;;;14.30;99.90;;;;;;12402305;28;20154;-39
2022/05/21 21:43:47;;;;;;;9.65;2.50;;;14.10;99.90;;;;;;12399891;28;20046;-39
2022/05/21 21:49:49;;;;;;;4.50;1.60;;;14.00;99.90;;;;;;12404077;28;20118;-39
2022/05/21 21:55:51;;;;;;;5.03;1.58;;;13.80;99.90;;;;;;12400854;28;20077;-40
2022/05/21 22:01:53;;;;;;;6.05;2.00;;;13.80;99.90;;;;;;12398380;28;20081;-40
2022/05/21 22:07:55;;;;;;;5.88;2.17;;;13.80;99.90;;;;;;12400600;28;20453;-39
2022/05/21 22:13:57;;;;;;;7.75;1.65;;;13.70;99.90;;;;;;12399895;28;20115;-39
2022/05/21 22:19:59;;;;;;;7.30;1.80;;;13.80;99.90;;;;;;12398717;28;20125;-40
2022/05/21 22:26:02;;;;;;;8.20;2.15;;;13.60;99.90;;;;;;12400796;28;20563;-40
2022/05/21 22:32:04;;;;;;;7.38;1.42;;;13.80;99.90;;;;;;12400855;28;20141;-39
2022/05/21 22:38:06;;;;;;;7.13;1.60;;;13.80;99.90;;;;;;12403300;28;20050;-39
2022/05/21 22:44:08;;;;;;;7.53;1.88;;;13.80;99.90;;;;;;12399304;28;20137;-40
2022/05/21 22:50:13;;;;;;;6.03;1.80;;;13.80;99.90;;;;;;12397241;28;20050;-39
2022/05/21 22:56:15;;;;;;;9.03;1.80;;;13.50;99.90;;;;;;12400331;28;20054;-39
2022/05/21 23:02:17;;;;;;;7.60;1.60;;;13.60;99.90;;;;;;12397798;28;20057;-39
2022/05/21 23:08:19;;;;;;;7.55;1.30;;;13.60;99.90;;;;;;12399566;28;20473;-41
2022/05/21 23:21:06;;;;;;;7.10;1.40;;;13.70;99.90;;;;;;12402583;28;20137;-40
2022/05/21 23:27:09;;;;;;;3.83;1.30;;;13.80;99.90;;;;;;12402693;28;20165;-40
2022/05/21 23:33:11;;;;;;;9.60;1.77;;;13.70;99.90;;;;;;12405678;28;20081;-40
2022/05/21 23:39:13;;;;;;;4.15;1.58;;;13.60;99.90;;;;;;12404328;28;20141;-39
2022/05/21 23:45:15;;;;;;;5.78;1.52;;;13.40;99.90;;;;;;12408195;28;20100;-40
2022/05/21 23:51:20;;;;;;;7.90;1.98;;;13.30;99.90;;;;;;12405446;28;20137;-40
2022/05/21 23:57:22;;;;;;;3.85;1.40;;;13.20;99.90;;;;;;12407382;28;20133;-41
